createdAt,value
2019-06-10T00:00:01.850Z,101566.81
2019-06-10T00:00:44.942Z,101567.56
2019-06-10T00:01:28.401Z,101557.58
2019-06-10T00:02:12.085Z,101564.84
2019-06-10T00:02:55.556Z,101563.97
2019-06-10T00:03:41.806Z,101563.09
2019-06-10T00:04:24.961Z,101558.67
2019-06-10T00:05:08.243Z,101557.31
2019-06-10T00:05:51.872Z,101559.03
2019-06-10T00:06:35.374Z,101553.73
2019-06-10T00:07:18.207Z,101551.50
2019-06-10T00:08:03.847Z,101551.50
2019-06-10T00:08:46.836Z,101548.30
2019-06-10T00:09:31.231Z,101551.98
2019-06-10T00:10:15.262Z,101546.08
2019-06-10T00:11:01.773Z,101550.23
2019-06-10T00:11:43.331Z,101544.33
2019-06-10T00:12:27.036Z,101552.85
2019-06-10T00:13:11.849Z,101547.91
2019-06-10T00:13:55.105Z,101544.33
2019-06-10T00:14:38.904Z,101546.65
2019-06-10T00:15:22.042Z,101545.29
2019-06-10T00:16:06.260Z,101545.29
2019-06-10T00:16:50.845Z,101542.58
2019-06-10T00:17:47.805Z,101537.63
2019-06-10T00:18:35.495Z,101538.51
2019-06-10T00:19:06.791Z,101540.86
2019-06-10T00:19:51.137Z,101538.16
2019-06-10T00:20:34.142Z,101531.38
2019-06-10T00:21:17.904Z,101528.75
2019-06-10T00:22:02.516Z,101527.48
2019-06-10T00:22:45.839Z,101527.48
2019-06-10T00:23:31.635Z,101527.48
2019-06-10T00:24:15.328Z,101526.61
2019-06-10T00:24:58.140Z,101526.13
2019-06-10T00:25:42.162Z,101526.13
2019-06-10T00:26:25.937Z,101527.12
2019-06-10T00:27:11.466Z,101522.67
2019-06-10T00:27:54.854Z,101528.48
2019-06-10T00:28:40.527Z,101527.12
2019-06-10T00:29:23.100Z,101526.25
2019-06-10T00:30:08.162Z,101519.83
2019-06-10T00:30:51.865Z,101524.41
2019-06-10T00:31:34.726Z,101523.42
2019-06-10T00:32:18.160Z,101523.42
2019-06-10T00:33:03.511Z,101520.34
2019-06-10T00:33:47.119Z,101520.70
2019-06-10T00:34:31.616Z,101516.64
2019-06-10T00:35:16.628Z,101515.41
2019-06-10T00:36:01.716Z,101515.89
2019-06-10T00:36:44.825Z,101505.91
2019-06-10T00:37:31.360Z,101505.03
2019-06-10T00:38:07.262Z,101505.03
2019-06-10T00:38:51.714Z,101502.81
2019-06-10T00:39:35.831Z,101499.13
2019-06-10T00:40:21.293Z,101501.45
2019-06-10T00:41:05.972Z,101499.22
2019-06-10T00:41:51.840Z,101500.58
2019-06-10T00:42:33.839Z,101500.19
2019-06-10T00:43:17.374Z,101492.44
2019-06-10T00:44:03.675Z,101493.41
2019-06-10T00:44:46.171Z,101497.95
2019-06-10T00:45:31.547Z,101496.25
2019-06-10T00:46:15.501Z,101495.64
2019-06-10T00:46:58.386Z,101502.03
2019-06-10T00:47:41.808Z,101497.13
2019-06-10T00:48:29.167Z,101494.41
2019-06-10T00:49:14.423Z,101501.77
2019-06-10T00:49:56.773Z,101488.59
2019-06-10T00:50:41.526Z,101486.36
2019-06-10T00:51:24.882Z,101487.23
2019-06-10T00:52:09.380Z,101484.52
2019-06-10T00:52:54.113Z,101485.00
2019-06-10T00:53:37.123Z,101484.13
2019-06-10T00:54:21.933Z,101478.31
2019-06-10T00:55:07.839Z,101481.91
2019-06-10T00:55:51.526Z,101474.77
2019-06-10T00:56:35.573Z,101472.89
2019-06-10T00:57:20.891Z,101469.83
2019-06-10T00:58:04.133Z,101473.89
2019-06-10T00:58:48.483Z,101478.93
2019-06-10T00:59:31.995Z,101472.89
2019-06-10T01:00:25.207Z,101473.89
2019-06-10T01:01:02.308Z,101470.31
2019-06-10T01:01:46.037Z,101475.25
2019-06-10T01:02:31.470Z,101473.89
2019-06-10T01:03:15.374Z,101470.70
2019-06-10T01:04:01.383Z,101468.08
2019-06-10T01:04:45.204Z,101463.14
2019-06-10T01:05:30.930Z,101460.42
2019-06-10T01:06:15.187Z,101461.39
2019-06-10T01:07:00.619Z,101455.09
2019-06-10T01:07:43.597Z,101460.03
2019-06-10T01:08:27.245Z,101450.67
2019-06-10T01:09:12.721Z,101455.48
2019-06-10T01:09:55.582Z,101447.48
2019-06-10T01:10:43.251Z,101451.03
2019-06-10T01:11:26.939Z,101448.83
2019-06-10T01:12:09.108Z,101447.96
2019-06-10T01:12:55.228Z,101446.95
2019-06-10T01:13:38.371Z,101446.60
2019-06-10T01:14:21.860Z,101445.73
2019-06-10T01:15:07.344Z,101444.38
2019-06-10T01:15:51.084Z,101444.86
2019-06-10T01:16:35.149Z,101440.30
2019-06-10T01:17:21.196Z,101440.79
2019-06-10T01:18:05.487Z,101438.95
2019-06-10T01:18:52.705Z,101435.37
2019-06-10T01:19:35.618Z,101433.63
2019-06-10T01:20:21.082Z,101434.01
2019-06-10T01:21:05.854Z,101429.07
2019-06-10T01:21:51.215Z,101430.91
2019-06-10T01:22:34.563Z,101430.91
2019-06-10T01:23:18.143Z,101423.38
2019-06-10T01:24:01.913Z,101423.73
2019-06-10T01:24:45.276Z,101421.55
2019-06-10T01:25:30.975Z,101421.16
2019-06-10T01:26:16.402Z,101420.28
2019-06-10T01:27:01.239Z,101417.56
2019-06-10T01:27:44.566Z,101419.41
2019-06-10T01:28:28.051Z,101414.86
2019-06-10T01:29:12.723Z,101411.76
2019-06-10T01:29:56.402Z,101418.05
2019-06-10T01:30:41.196Z,101411.76
2019-06-10T01:31:24.548Z,101405.95
2019-06-10T01:32:09.760Z,101405.95
2019-06-10T01:32:53.725Z,101410.02
2019-06-10T01:33:36.350Z,101404.98
2019-06-10T01:34:21.781Z,101406.33
2019-06-10T01:35:07.132Z,101408.66
2019-06-10T01:35:51.442Z,101405.95
2019-06-10T01:36:35.409Z,101405.20
2019-06-10T01:37:21.544Z,101406.07
2019-06-10T01:38:03.944Z,101408.78
2019-06-10T01:38:47.169Z,101403.36
2019-06-10T01:39:30.981Z,101407.81
2019-06-10T01:40:16.338Z,101403.84
2019-06-10T01:41:01.564Z,101409.27
2019-06-10T01:41:44.801Z,101402.48
2019-06-10T01:42:27.918Z,101398.33
2019-06-10T01:43:14.065Z,101399.78
2019-06-10T01:43:56.746Z,101398.42
2019-06-10T01:44:41.172Z,101397.06
2019-06-10T01:45:24.877Z,101398.42
2019-06-10T01:46:11.316Z,101393.38
2019-06-10T01:46:53.370Z,101388.93
2019-06-10T01:47:36.836Z,101389.41
2019-06-10T01:48:21.071Z,101393.48
2019-06-10T01:49:04.304Z,101393.74
2019-06-10T01:49:47.990Z,101386.22
2019-06-10T01:50:31.572Z,101387.09
2019-06-10T01:51:21.392Z,101388.83
2019-06-10T01:52:05.788Z,101385.25
2019-06-10T01:52:51.439Z,101377.11
2019-06-10T01:53:34.593Z,101379.44
2019-06-10T01:54:18.497Z,101382.63
2019-06-10T01:55:02.195Z,101372.27
2019-06-10T01:55:45.226Z,101369.95
2019-06-10T01:56:28.596Z,101373.14
2019-06-10T01:57:13.862Z,101374.02
2019-06-10T01:57:56.855Z,101370.91
2019-06-10T01:58:40.694Z,101378.66
2019-06-10T01:59:24.627Z,101373.63
2019-06-10T02:00:13.399Z,101382.73
2019-06-10T02:00:58.188Z,101380.02
2019-06-10T02:01:57.076Z,101380.53
2019-06-10T02:02:44.792Z,101367.45
2019-06-10T02:03:25.490Z,101366.59
2019-06-10T02:04:11.592Z,101368.04
2019-06-10T02:04:53.939Z,101366.59
2019-06-10T02:05:37.261Z,101368.91
2019-06-10T02:06:25.101Z,101371.23
2019-06-10T02:07:05.824Z,101368.52
2019-06-10T02:07:51.650Z,101373.08
2019-06-10T02:08:35.007Z,101369.00
2019-06-10T02:09:22.391Z,101372.23
2019-06-10T02:10:07.058Z,101372.72
2019-06-10T02:10:51.035Z,101368.26
2019-06-10T02:11:35.168Z,101361.48
2019-06-10T02:12:20.146Z,101360.13
2019-06-10T02:13:03.922Z,101358.77
2019-06-10T02:13:46.970Z,101360.52
2019-06-10T02:14:31.828Z,101360.52
2019-06-10T02:15:16.737Z,101360.52
2019-06-10T02:16:03.402Z,101360.52
2019-06-10T02:16:46.763Z,101357.32
2019-06-10T02:17:31.429Z,101356.93
2019-06-10T02:18:15.332Z,101365.45
2019-06-10T02:19:01.452Z,101352.48
2019-06-10T02:19:45.458Z,101357.90
2019-06-10T02:20:28.782Z,101358.38
2019-06-10T02:21:14.996Z,101358.03
2019-06-10T02:21:57.609Z,101364.80
2019-06-10T02:22:41.117Z,101360.35
2019-06-10T02:23:24.792Z,101360.35
2019-06-10T02:24:07.917Z,101356.28
2019-06-10T02:24:51.107Z,101350.47
2019-06-10T02:25:34.851Z,101348.16
2019-06-10T02:26:19.884Z,101348.16
2019-06-10T02:27:03.989Z,101349.02
2019-06-10T02:27:47.427Z,101341.86
2019-06-10T02:28:31.793Z,101343.70
2019-06-10T02:29:16.138Z,101343.70
2019-06-10T02:30:01.812Z,101337.30
2019-06-10T02:30:51.930Z,101339.14
2019-06-10T02:31:37.383Z,101334.20
2019-06-10T02:32:23.153Z,101341.47
2019-06-10T02:33:03.161Z,101329.75
2019-06-10T02:33:46.325Z,101337.53
2019-06-10T02:34:33.389Z,101328.87
2019-06-10T02:35:26.187Z,101329.40
2019-06-10T02:36:03.942Z,101329.40
2019-06-10T02:36:46.466Z,101322.62
2019-06-10T02:37:37.081Z,101329.40
2019-06-10T02:38:19.849Z,101331.23
2019-06-10T02:39:04.285Z,101324.94
2019-06-10T02:39:45.966Z,101326.30
2019-06-10T02:40:33.179Z,101324.94
2019-06-10T02:41:18.629Z,101321.84
2019-06-10T02:42:04.204Z,101321.84
2019-06-10T02:42:47.830Z,101321.84
2019-06-10T02:43:36.636Z,101320.48
2019-06-10T02:44:22.919Z,101317.39
2019-06-10T02:45:03.704Z,101317.39
2019-06-10T02:45:47.288Z,101314.32
2019-06-10T02:46:34.958Z,101312.97
2019-06-10T02:47:19.201Z,101308.90
2019-06-10T02:48:04.192Z,101312.97
2019-06-10T02:48:48.169Z,101312.19
2019-06-10T02:49:51.566Z,101303.57
2019-06-10T02:50:20.927Z,101311.61
2019-06-10T02:51:05.319Z,101306.28
2019-06-10T02:51:48.329Z,101305.41
2019-06-10T02:52:34.197Z,101306.77
2019-06-10T02:53:17.671Z,101307.25
2019-06-10T02:54:04.703Z,101297.77
2019-06-10T02:54:48.285Z,101305.41
2019-06-10T02:55:34.953Z,101304.93
2019-06-10T02:56:17.681Z,101301.83
2019-06-10T02:57:04.370Z,101307.64
2019-06-10T02:57:48.021Z,101306.28
2019-06-10T02:58:38.439Z,101305.80
2019-06-10T02:59:18.241Z,101300.38
2019-06-10T03:00:06.494Z,101304.93
2019-06-10T03:00:48.850Z,101300.86
2019-06-10T03:01:37.899Z,101304.45
2019-06-10T03:02:20.237Z,101302.22
2019-06-10T03:03:03.831Z,101297.77
2019-06-10T03:03:49.697Z,101298.63
2019-06-10T03:04:37.616Z,101302.70
2019-06-10T03:05:20.195Z,101295.53
2019-06-10T03:06:07.345Z,101288.77
2019-06-10T03:06:49.691Z,101297.89
2019-06-10T03:07:35.403Z,101294.80
2019-06-10T03:08:21.015Z,101293.83
2019-06-10T03:09:04.374Z,101289.38
2019-06-10T03:09:47.436Z,101284.44
2019-06-10T03:10:36.112Z,101283.08
2019-06-10T03:11:16.592Z,101289.86
2019-06-10T03:12:04.301Z,101289.38
2019-06-10T03:12:46.620Z,101288.50
2019-06-10T03:13:30.068Z,101285.30
2019-06-10T03:14:13.149Z,101287.53
2019-06-10T03:14:56.725Z,101281.24
2019-06-10T03:15:42.703Z,101284.44
2019-06-10T03:16:33.856Z,101278.14
2019-06-10T03:17:19.920Z,101271.36
2019-06-10T03:18:03.920Z,101276.30
2019-06-10T03:18:47.033Z,101280.85
2019-06-10T03:19:46.587Z,101275.05
2019-06-10T03:20:17.907Z,101268.72
2019-06-10T03:21:02.723Z,101271.43
2019-06-10T03:21:46.411Z,101271.95
2019-06-10T03:22:30.007Z,101266.91
2019-06-10T03:23:14.510Z,101271.84
2019-06-10T03:23:58.272Z,101277.75
2019-06-10T03:24:42.217Z,101270.59
2019-06-10T03:25:26.476Z,101279.56
2019-06-10T03:26:12.356Z,101270.59
2019-06-10T03:26:55.971Z,101275.49
2019-06-10T03:27:39.228Z,101272.78
2019-06-10T03:28:25.233Z,101275.14
2019-06-10T03:29:07.844Z,101276.49
2019-06-10T03:29:52.614Z,101274.66
2019-06-10T03:30:47.871Z,101272.91
2019-06-10T03:31:28.354Z,101271.56
2019-06-10T03:32:06.576Z,101274.75
2019-06-10T03:32:50.095Z,101270.20
2019-06-10T03:33:41.032Z,101274.27
2019-06-10T03:34:23.242Z,101274.27
2019-06-10T03:35:06.118Z,101270.30
2019-06-10T03:35:52.308Z,101276.59
2019-06-10T03:36:34.485Z,101276.59
2019-06-10T03:37:18.462Z,101273.01
2019-06-10T03:38:03.031Z,101273.87
2019-06-10T03:38:46.226Z,101271.30
2019-06-10T03:39:32.140Z,101271.78
2019-06-10T03:40:16.460Z,101267.72
2019-06-10T03:41:03.298Z,101267.72
2019-06-10T03:41:47.628Z,101268.69
2019-06-10T03:42:32.468Z,101266.36
2019-06-10T03:43:16.694Z,101268.69
2019-06-10T03:44:02.541Z,101265.49
2019-06-10T03:44:47.900Z,101263.27
2019-06-10T03:45:32.404Z,101263.27
2019-06-10T03:46:17.238Z,101257.84
2019-06-10T03:47:02.846Z,101267.23
2019-06-10T03:47:46.228Z,101267.23
2019-06-10T03:48:29.719Z,101262.65
2019-06-10T03:49:13.074Z,101261.30
2019-06-10T03:49:56.454Z,101258.97
2019-06-10T03:50:40.253Z,101258.10
2019-06-10T03:51:26.642Z,101263.17
2019-06-10T03:52:09.484Z,101261.81
2019-06-10T03:52:53.334Z,101259.45
2019-06-10T03:53:36.800Z,101260.33
2019-06-10T03:54:22.745Z,101257.23
2019-06-10T03:55:06.982Z,101256.00
2019-06-10T03:55:52.533Z,101256.00
2019-06-10T03:56:34.634Z,101258.23
2019-06-10T03:57:19.237Z,101258.23
2019-06-10T03:58:02.977Z,101252.81
2019-06-10T03:58:46.221Z,101254.17
2019-06-10T03:59:32.414Z,101247.75
2019-06-10T04:00:17.340Z,101247.75
2019-06-10T04:01:02.809Z,101250.97
2019-06-10T04:01:45.595Z,101252.68
2019-06-10T04:02:29.006Z,101250.45
2019-06-10T04:03:12.248Z,101249.09
2019-06-10T04:03:55.993Z,101246.39
2019-06-10T04:04:39.924Z,101250.45
2019-06-10T04:05:25.349Z,101251.33
2019-06-10T04:06:08.796Z,101247.75
2019-06-10T04:06:53.170Z,101244.67
2019-06-10T04:07:36.497Z,101246.91
2019-06-10T04:08:23.398Z,101251.45
2019-06-10T04:09:06.783Z,101247.48
2019-06-10T04:09:50.016Z,101249.33
2019-06-10T04:10:33.682Z,101251.16
2019-06-10T04:11:17.495Z,101247.97
2019-06-10T04:12:02.051Z,101250.68
2019-06-10T04:12:45.967Z,101250.30
2019-06-10T04:13:29.342Z,101244.88
2019-06-10T04:14:13.006Z,101247.71
2019-06-10T04:14:56.774Z,101247.71
2019-06-10T04:15:42.898Z,101256.72
2019-06-10T04:16:27.160Z,101246.84
2019-06-10T04:17:13.071Z,101256.33
2019-06-10T04:17:56.631Z,101253.13
2019-06-10T04:18:39.906Z,101253.13
2019-06-10T04:19:25.481Z,101253.13
2019-06-10T04:20:13.193Z,101245.00
2019-06-10T04:20:55.039Z,101251.78
2019-06-10T04:21:39.081Z,101242.77
2019-06-10T04:22:25.205Z,101250.03
2019-06-10T04:23:08.059Z,101248.68
2019-06-10T04:23:52.839Z,101248.20
2019-06-10T04:24:37.005Z,101245.48
2019-06-10T04:25:23.202Z,101247.71
2019-06-10T04:26:06.431Z,101247.23
2019-06-10T04:26:52.139Z,101249.45
2019-06-10T04:27:35.930Z,101246.36
2019-06-10T04:28:19.808Z,101240.45
2019-06-10T04:29:04.035Z,101246.75
2019-06-10T04:29:47.156Z,101240.45
2019-06-10T04:30:32.504Z,101243.52
2019-06-10T04:31:16.331Z,101240.45
2019-06-10T04:32:03.314Z,101242.16
2019-06-10T04:32:45.607Z,101239.09
2019-06-10T04:33:28.881Z,101240.45
2019-06-10T04:34:12.493Z,101238.61
2019-06-10T04:34:56.344Z,101241.80
2019-06-10T04:35:42.570Z,101239.09
2019-06-10T04:36:26.571Z,101237.26
2019-06-10T04:37:12.433Z,101236.87
2019-06-10T04:37:56.061Z,101240.06
2019-06-10T04:38:39.150Z,101235.52
2019-06-10T04:39:24.507Z,101238.71
2019-06-10T04:40:13.376Z,101243.16
2019-06-10T04:40:56.037Z,101240.06
2019-06-10T04:41:39.639Z,101240.06
2019-06-10T04:42:25.706Z,101237.36
2019-06-10T04:43:08.734Z,101241.42
2019-06-10T04:43:53.215Z,101243.16
2019-06-10T04:44:36.465Z,101241.80
2019-06-10T04:45:21.207Z,101236.87
2019-06-10T04:46:05.454Z,101239.09
2019-06-10T04:46:48.721Z,101243.52
2019-06-10T04:47:33.253Z,101241.67
2019-06-10T04:48:18.344Z,101242.55
2019-06-10T04:49:02.936Z,101243.91
2019-06-10T04:49:45.921Z,101242.55
2019-06-10T04:50:39.082Z,101246.62
2019-06-10T04:51:15.421Z,101247.48
2019-06-10T04:51:58.483Z,101243.42
2019-06-10T04:52:43.143Z,101244.77
2019-06-10T04:53:28.003Z,101246.62
2019-06-10T04:54:13.248Z,101241.67
2019-06-10T04:54:55.870Z,101242.06
2019-06-10T04:55:39.233Z,101247.39
2019-06-10T04:56:24.614Z,101245.03
2019-06-10T04:57:07.805Z,101244.06
2019-06-10T04:57:52.128Z,101234.58
2019-06-10T04:58:35.426Z,101239.03
2019-06-10T04:59:18.876Z,101241.26
2019-06-10T05:00:04.178Z,101233.91
2019-06-10T05:00:47.047Z,101230.77
2019-06-10T05:01:31.133Z,101235.25
2019-06-10T05:02:15.959Z,101229.34
2019-06-10T05:02:58.647Z,101229.34
2019-06-10T05:03:43.437Z,101228.87
2019-06-10T05:04:28.744Z,101231.09
2019-06-10T05:05:14.046Z,101230.13
2019-06-10T05:05:57.598Z,101227.41
2019-06-10T05:06:42.260Z,101222.48
2019-06-10T05:07:27.962Z,101227.03
2019-06-10T05:08:13.116Z,101227.52
2019-06-10T05:08:56.550Z,101221.61
2019-06-10T05:09:39.456Z,101225.28
2019-06-10T05:10:24.072Z,101223.54
2019-06-10T05:11:08.221Z,101223.64
2019-06-10T05:11:52.242Z,101224.22
2019-06-10T05:12:35.673Z,101221.64
2019-06-10T05:13:19.310Z,101219.90
2019-06-10T05:14:02.757Z,101217.19
2019-06-10T05:14:46.524Z,101215.93
2019-06-10T05:15:31.699Z,101211.38
2019-06-10T05:16:15.205Z,101214.86
2019-06-10T05:16:58.876Z,101216.31
2019-06-10T05:17:43.616Z,101211.87
2019-06-10T05:18:27.651Z,101208.67
2019-06-10T05:19:13.009Z,101212.16
2019-06-10T05:19:56.585Z,101209.55
2019-06-10T05:20:52.071Z,101209.55
2019-06-10T05:21:27.751Z,101208.67
2019-06-10T05:22:12.243Z,101208.67
2019-06-10T05:22:54.699Z,101205.86
2019-06-10T05:23:38.016Z,101209.55
2019-06-10T05:24:25.142Z,101208.19
2019-06-10T05:25:06.415Z,101209.44
2019-06-10T05:25:52.396Z,101212.51
2019-06-10T05:26:35.299Z,101207.09
2019-06-10T05:27:18.416Z,101215.61
2019-06-10T05:28:02.878Z,101216.96
2019-06-10T05:28:46.314Z,101207.86
2019-06-10T05:29:31.116Z,101212.80
2019-06-10T05:30:15.498Z,101209.61
2019-06-10T05:30:58.808Z,101209.08
2019-06-10T05:31:43.555Z,101207.28
2019-06-10T05:32:27.863Z,101206.80
2019-06-10T05:33:13.428Z,101205.44
2019-06-10T05:33:56.554Z,101203.60
2019-06-10T05:34:40.091Z,101202.73
2019-06-10T05:35:26.610Z,101203.60
2019-06-10T05:36:08.721Z,101205.83
2019-06-10T05:36:52.643Z,101208.92
2019-06-10T05:37:36.404Z,101212.60
2019-06-10T05:38:21.238Z,101211.25
2019-06-10T05:39:07.243Z,101207.66
2019-06-10T05:39:52.725Z,101210.77
2019-06-10T05:40:35.760Z,101211.73
2019-06-10T05:41:19.183Z,101211.73
2019-06-10T05:42:03.265Z,101205.44
2019-06-10T05:42:46.593Z,101203.98
2019-06-10T05:43:32.915Z,101207.82
2019-06-10T05:44:15.798Z,101210.53
2019-06-10T05:44:59.098Z,101205.11
2019-06-10T05:45:42.819Z,101206.95
2019-06-10T05:46:27.310Z,101202.40
2019-06-10T05:47:12.671Z,101202.02
2019-06-10T05:47:55.590Z,101200.31
2019-06-10T05:48:38.974Z,101197.21
2019-06-10T05:49:24.153Z,101197.08
2019-06-10T05:50:07.580Z,101194.50
2019-06-10T05:51:02.019Z,101190.81
2019-06-10T05:51:36.162Z,101195.37
2019-06-10T05:52:19.960Z,101188.47
2019-06-10T05:53:03.634Z,101189.81
2019-06-10T05:53:46.551Z,101190.59
2019-06-10T05:54:33.575Z,101190.20
2019-06-10T05:55:15.357Z,101186.52
2019-06-10T05:55:58.441Z,101187.49
2019-06-10T05:56:43.211Z,101185.17
2019-06-10T05:57:27.381Z,101186.52
2019-06-10T05:58:12.926Z,101184.68
2019-06-10T05:58:56.378Z,101185.17
2019-06-10T05:59:40.223Z,101185.27
2019-06-10T06:00:24.429Z,101184.30
2019-06-10T06:01:08.558Z,101184.30
2019-06-10T06:01:53.917Z,101183.42
2019-06-10T06:02:36.680Z,101183.42
2019-06-10T06:03:22.581Z,101171.71
2019-06-10T06:04:06.405Z,101178.97
2019-06-10T06:04:49.560Z,101178.00
2019-06-10T06:05:34.852Z,101176.66
2019-06-10T06:06:18.688Z,101182.56
2019-06-10T06:07:02.394Z,101180.81
2019-06-10T06:07:58.936Z,101181.20
2019-06-10T06:08:33.323Z,101181.69
2019-06-10T06:09:16.036Z,101183.91
2019-06-10T06:09:59.641Z,101190.59
2019-06-10T06:10:44.905Z,101185.17
2019-06-10T06:11:29.330Z,101185.91
2019-06-10T06:12:14.305Z,101191.33
2019-06-10T06:12:57.652Z,101187.49
2019-06-10T06:13:42.967Z,101188.84
2019-06-10T06:14:25.955Z,101185.40
2019-06-10T06:15:09.489Z,101188.36
2019-06-10T06:15:52.869Z,101192.91
2019-06-10T06:16:38.154Z,101189.23
2019-06-10T06:17:23.614Z,101190.11
2019-06-10T06:18:10.438Z,101190.69
2019-06-10T06:18:52.872Z,101189.95
2019-06-10T06:19:38.484Z,101192.38
2019-06-10T06:20:23.349Z,101188.50
2019-06-10T06:21:20.565Z,101196.63
2019-06-10T06:21:53.047Z,101187.86
2019-06-10T06:22:37.539Z,101192.02
2019-06-10T06:23:23.156Z,101185.25
2019-06-10T06:24:06.458Z,101185.86
2019-06-10T06:24:52.074Z,101194.09
2019-06-10T06:25:39.822Z,101194.22
2019-06-10T06:26:19.888Z,101192.87
2019-06-10T06:27:03.944Z,101192.87
2019-06-10T06:27:47.663Z,101190.64
2019-06-10T06:28:34.297Z,101193.73
2019-06-10T06:29:16.314Z,101188.31
2019-06-10T06:30:02.823Z,101189.92
2019-06-10T06:30:46.406Z,101193.37
2019-06-10T06:31:30.805Z,101185.25
2019-06-10T06:32:14.991Z,101184.77
2019-06-10T06:32:58.943Z,101183.80
2019-06-10T06:33:43.453Z,101184.66
2019-06-10T06:34:30.823Z,101174.92
2019-06-10T06:35:15.531Z,101183.08
2019-06-10T06:35:58.493Z,101180.37
2019-06-10T06:36:42.242Z,101183.56
2019-06-10T06:37:26.881Z,101187.14
2019-06-10T06:38:09.946Z,101181.23
2019-06-10T06:38:53.881Z,101185.21
2019-06-10T06:39:38.299Z,101179.40
2019-06-10T06:40:23.106Z,101185.21
2019-06-10T06:41:07.373Z,101182.59
2019-06-10T06:41:52.850Z,101179.88
2019-06-10T06:42:37.063Z,101185.21
2019-06-10T06:43:22.228Z,101183.47
2019-06-10T06:44:06.007Z,101179.88
2019-06-10T06:44:48.979Z,101178.44
2019-06-10T06:45:34.654Z,101182.40
2019-06-10T06:46:17.844Z,101182.88
2019-06-10T06:47:02.717Z,101182.88
2019-06-10T06:47:46.633Z,101185.11
2019-06-10T06:48:33.180Z,101187.34
2019-06-10T06:49:15.291Z,101187.34
2019-06-10T06:49:59.039Z,101185.02
2019-06-10T06:51:00.402Z,101189.08
2019-06-10T06:51:38.927Z,101184.53
2019-06-10T06:52:13.341Z,101189.46
2019-06-10T06:53:50.877Z,101197.21
2019-06-10T06:54:28.479Z,101190.53
2019-06-10T06:55:12.874Z,101187.92
2019-06-10T06:55:56.125Z,101188.89
2019-06-10T06:56:41.079Z,101187.92
2019-06-10T06:57:25.214Z,101186.17
2019-06-10T06:58:08.171Z,101191.21
2019-06-10T06:58:52.476Z,101185.79
2019-06-10T06:59:37.404Z,101186.27
2019-06-10T07:00:43.044Z,101185.69
2019-06-10T07:01:10.883Z,101187.53
2019-06-10T07:01:55.095Z,101180.75
2019-06-10T07:02:38.811Z,101182.98
2019-06-10T07:03:23.419Z,101184.83
2019-06-10T07:04:07.245Z,101182.11
2019-06-10T07:04:52.428Z,101183.85
2019-06-10T07:05:37.178Z,101181.91
2019-06-10T07:06:22.955Z,101184.88
2019-06-10T07:07:06.380Z,101184.05
2019-06-10T07:07:49.733Z,101182.17
2019-06-10T07:08:36.131Z,101178.63
2019-06-10T07:09:18.537Z,101180.33
2019-06-10T07:10:03.385Z,101182.56
2019-06-10T07:10:47.019Z,101180.72
2019-06-10T07:11:33.379Z,101176.06
2019-06-10T07:12:15.592Z,101177.91
2019-06-10T07:12:59.295Z,101177.03
2019-06-10T07:13:45.843Z,101172.97
2019-06-10T07:14:33.790Z,101169.77
2019-06-10T07:15:16.531Z,101173.94
2019-06-10T07:16:02.730Z,101171.23
2019-06-10T07:16:46.616Z,101169.97
2019-06-10T07:17:32.013Z,101167.49
2019-06-10T07:18:15.845Z,101168.56
2019-06-10T07:18:59.833Z,101168.17
2019-06-10T07:19:45.764Z,101167.44
2019-06-10T07:20:28.701Z,101166.08
2019-06-10T07:21:13.227Z,101162.88
2019-06-10T07:22:08.326Z,101168.17
2019-06-10T07:22:46.639Z,101166.81
2019-06-10T07:23:28.311Z,101169.91
2019-06-10T07:24:12.704Z,101171.75
2019-06-10T07:24:56.289Z,101166.81
2019-06-10T07:25:42.263Z,101170.40
2019-06-10T07:26:25.062Z,101164.59
2019-06-10T07:27:08.063Z,101170.50
2019-06-10T07:27:52.746Z,101174.95
2019-06-10T07:28:38.427Z,101172.85
2019-06-10T07:29:22.575Z,101175.56
2019-06-10T07:30:14.646Z,101180.22
2019-06-10T07:30:55.352Z,101180.11
2019-06-10T07:31:39.687Z,101181.34
2019-06-10T07:32:24.530Z,101176.15
2019-06-10T07:33:07.794Z,101179.73
2019-06-10T07:33:52.638Z,101174.41
2019-06-10T07:34:38.435Z,101172.70
2019-06-10T07:35:22.434Z,101178.47
2019-06-10T07:36:05.747Z,101173.05
2019-06-10T07:36:52.025Z,101168.63
2019-06-10T07:37:36.603Z,101169.60
2019-06-10T07:38:22.317Z,101170.09
2019-06-10T07:39:07.003Z,101168.73
2019-06-10T07:39:52.364Z,101170.57
2019-06-10T07:40:36.549Z,101175.51
2019-06-10T07:41:22.962Z,101170.95
2019-06-10T07:42:07.645Z,101175.41
2019-06-10T07:42:52.922Z,101172.31
2019-06-10T07:43:40.858Z,101175.02
2019-06-10T07:44:22.653Z,101174.16
2019-06-10T07:45:08.750Z,101178.70
2019-06-10T07:45:53.399Z,101173.28
2019-06-10T07:46:37.829Z,101175.98
2019-06-10T07:47:23.094Z,101175.02
2019-06-10T07:48:07.106Z,101176.77
2019-06-10T07:48:56.112Z,101176.28
2019-06-10T07:49:35.587Z,101167.62
2019-06-10T07:50:19.046Z,101169.86
2019-06-10T07:51:02.950Z,101174.21
2019-06-10T07:51:46.672Z,101165.08
2019-06-10T07:52:30.058Z,101169.53
2019-06-10T07:53:18.146Z,101168.08
2019-06-10T07:54:03.150Z,101168.95
2019-06-10T07:54:46.748Z,101163.14
2019-06-10T07:55:33.226Z,101164.88
2019-06-10T07:56:15.079Z,101167.01
2019-06-10T07:56:58.385Z,101169.72
2019-06-10T07:57:44.365Z,101167.01
2019-06-10T07:58:26.873Z,101167.39
2019-06-10T07:59:12.931Z,101166.91
2019-06-10T07:59:56.578Z,101169.97
2019-06-10T08:00:40.852Z,101164.55
2019-06-10T08:01:24.889Z,101164.94
2019-06-10T08:02:08.484Z,101168.52
2019-06-10T08:02:53.006Z,101164.94
2019-06-10T08:03:38.161Z,101165.33
2019-06-10T08:04:22.624Z,101164.94
2019-06-10T08:05:06.909Z,101161.00
2019-06-10T08:05:52.579Z,101161.36
2019-06-10T08:06:36.412Z,101164.06
2019-06-10T08:07:19.708Z,101160.00
2019-06-10T08:08:03.400Z,101161.36
2019-06-10T08:08:47.284Z,101161.84
2019-06-10T08:09:30.133Z,101162.71
2019-06-10T08:10:14.808Z,101161.84
2019-06-10T08:10:58.716Z,101166.42
2019-06-10T08:11:44.855Z,101158.78
2019-06-10T08:12:26.854Z,101162.94
2019-06-10T08:13:12.037Z,101158.87
2019-06-10T08:13:55.148Z,101160.72
2019-06-10T08:14:39.533Z,101164.88
2019-06-10T08:15:23.120Z,101164.98
2019-06-10T08:16:06.208Z,101164.49
2019-06-10T08:16:49.542Z,101168.56
2019-06-10T08:17:32.978Z,101163.23
2019-06-10T08:18:15.782Z,101168.17
2019-06-10T08:19:24.629Z,101168.79
2019-06-10T08:19:49.575Z,101169.66
2019-06-10T08:20:47.718Z,101159.30
2019-06-10T08:21:32.299Z,101166.17
2019-06-10T08:22:29.967Z,101160.66
2019-06-10T08:23:02.241Z,101166.08
2019-06-10T08:23:47.475Z,101159.30
2019-06-10T08:24:32.903Z,101155.23
2019-06-10T08:25:16.191Z,101152.39
2019-06-10T08:25:59.731Z,101155.98
2019-06-10T08:26:45.532Z,101153.27
2019-06-10T08:27:28.519Z,101156.36